createdAt,value
2019-06-15T00:04:36.881Z,99694.35
2019-06-15T00:09:38.596Z,99687.13
2019-06-15T00:14:40.185Z,99688.91
2019-06-15T00:19:41.760Z,99674.69
2019-06-15T00:24:43.324Z,99647.63
2019-06-15T00:29:45.017Z,99630.17
2019-06-15T00:34:46.732Z,99642.75
2019-06-15T00:39:48.295Z,99640.84
2019-06-15T00:44:49.879Z,99667.12
2019-06-15T00:49:51.444Z,99620.86
2019-06-15T00:54:53.025Z,99584.92
2019-06-15T00:59:54.593Z,99598.52
2019-06-15T01:04:56.160Z,99599.43
2019-06-15T01:09:57.832Z,99570.03
2019-06-15T01:14:59.481Z,99535.48
2019-06-15T01:20:01.073Z,99527.56
2019-06-15T01:25:05.963Z,99536.66
2019-06-15T01:30:09.190Z,99529.72
2019-06-15T01:35:11.202Z,99526.02
2019-06-15T01:40:12.996Z,99490.92
2019-06-15T01:45:14.843Z,99466.05
2019-06-15T01:50:16.418Z,99490.48
2019-06-15T01:55:21.154Z,99515.17
2019-06-15T02:00:22.040Z,99495.86
2019-06-15T02:05:23.528Z,99485.25
2019-06-15T02:10:27.478Z,99485.09
2019-06-15T02:15:28.972Z,99466.70
2019-06-15T02:20:30.477Z,99477.30
2019-06-15T02:25:36.383Z,99476.16
2019-06-15T02:30:35.478Z,99487.38
2019-06-15T02:35:37.046Z,99477.44
2019-06-15T02:40:38.538Z,99479.26
2019-06-15T02:45:39.987Z,99477.06
2019-06-15T02:50:41.952Z,99477.52
2019-06-15T02:55:50.645Z,99472.63
2019-06-15T03:00:57.227Z,99471.48
2019-06-15T03:05:59.012Z,99468.48
2019-06-15T03:11:00.605Z,99453.98
2019-06-15T03:16:02.527Z,99448.84
2019-06-15T03:21:03.995Z,99445.59
2019-06-15T03:26:06.192Z,99447.98
2019-06-15T03:31:07.769Z,99446.59
2019-06-15T03:36:09.200Z,99421.41
2019-06-15T03:41:10.677Z,99422.73
2019-06-15T03:46:12.186Z,99427.05
2019-06-15T03:51:13.668Z,99433.20
2019-06-15T03:56:21.585Z,99428.66
2019-06-15T04:01:25.689Z,99424.08
2019-06-15T04:06:27.229Z,99430.80
2019-06-15T04:11:28.705Z,99422.53
2019-06-15T04:16:30.150Z,99412.38
2019-06-15T04:21:31.695Z,99408.63
2019-06-15T04:26:36.239Z,99418.25
2019-06-15T04:31:39.849Z,99437.56
2019-06-15T04:36:39.930Z,99441.65
2019-06-15T04:41:41.484Z,99430.47
2019-06-15T04:46:42.967Z,99443.73
2019-06-15T04:51:44.415Z,99431.34
2019-06-15T04:56:51.038Z,99416.38
2019-06-15T05:01:49.255Z,99406.70
2019-06-15T05:06:50.775Z,99405.60
2019-06-15T05:11:52.241Z,99395.44
2019-06-15T05:16:53.703Z,99395.22
2019-06-15T05:21:55.207Z,99404.61
2019-06-15T05:27:05.826Z,99397.41
2019-06-15T05:32:00.895Z,99385.91
2019-06-15T05:37:02.359Z,99386.69
2019-06-15T05:42:03.955Z,99397.95
2019-06-15T05:47:05.465Z,99404.38
2019-06-15T05:52:06.964Z,99399.64
2019-06-15T05:57:20.847Z,99395.91
2019-06-15T06:02:11.935Z,99399.20
2019-06-15T06:07:13.479Z,99398.19
2019-06-15T06:12:14.958Z,99393.94
2019-06-15T06:17:16.412Z,99392.68
2019-06-15T06:22:17.894Z,99412.78
2019-06-15T06:27:19.384Z,99403.48
2019-06-15T06:32:20.887Z,99398.20
2019-06-15T06:37:22.342Z,99409.50
2019-06-15T06:42:23.851Z,99406.56
2019-06-15T06:47:25.358Z,99416.22
2019-06-15T06:52:26.834Z,99428.00
2019-06-15T06:57:28.330Z,99423.36
2019-06-15T07:02:29.904Z,99424.91
2019-06-15T07:07:31.431Z,99424.91
2019-06-15T07:12:33.011Z,99433.13
2019-06-15T07:17:34.820Z,99438.54
2019-06-15T07:22:36.514Z,99442.84
2019-06-15T07:27:38.031Z,99437.73
2019-06-15T07:32:39.529Z,99435.13
2019-06-15T07:37:41.040Z,99449.09
2019-06-15T07:42:42.514Z,99451.42
2019-06-15T07:47:44.053Z,99460.58
2019-06-15T07:52:45.632Z,99456.61
2019-06-15T07:57:47.103Z,99464.72
2019-06-15T08:07:55.334Z,99461.86
2019-06-15T08:12:56.875Z,99460.52
2019-06-15T08:17:58.375Z,99465.13
2019-06-15T08:28:06.144Z,99468.94
2019-06-15T08:33:07.867Z,99469.17
2019-06-15T08:38:09.369Z,99472.64
2019-06-15T08:43:10.978Z,99476.67
2019-06-15T08:48:12.469Z,99476.66
2019-06-15T08:58:20.626Z,99474.50
2019-06-15T09:29:24.180Z,99471.61
2019-06-15T09:34:25.681Z,99484.50
2019-06-15T09:39:27.207Z,99477.16
2019-06-15T09:44:28.750Z,99479.30
2019-06-15T09:49:30.289Z,99478.39
2019-06-15T09:54:31.771Z,99479.73
2019-06-15T09:59:33.275Z,99486.62
2019-06-15T10:04:34.777Z,99488.69
2019-06-15T10:09:36.294Z,99488.20
2019-06-15T10:14:37.829Z,99494.36
2019-06-15T10:19:39.317Z,99502.14
2019-06-15T10:24:40.819Z,99510.85
2019-06-15T10:29:42.615Z,99508.02
2019-06-15T10:34:44.166Z,99520.14
2019-06-15T10:39:45.673Z,99523.67
2019-06-15T10:44:47.169Z,99544.36
2019-06-15T10:49:48.711Z,99542.83
2019-06-15T10:54:50.254Z,99544.91
2019-06-15T10:59:57.422Z,99564.11
2019-06-15T11:04:55.215Z,99563.15
2019-06-15T11:09:56.700Z,99574.02
2019-06-15T11:14:58.308Z,99580.86
2019-06-15T11:19:59.805Z,99591.97
2019-06-15T11:25:01.416Z,99580.56
2019-06-15T11:30:13.068Z,99593.58
2019-06-15T11:35:07.513Z,99601.64
2019-06-15T11:40:09.430Z,99613.91
2019-06-15T11:45:11.080Z,99606.34
2019-06-15T11:50:12.819Z,99613.12
2019-06-15T11:55:14.326Z,99617.27
2019-06-15T12:00:30.770Z,99624.30
2019-06-15T12:05:23.913Z,99636.55
2019-06-15T12:10:25.389Z,99639.04
2019-06-15T12:15:26.888Z,99658.54
2019-06-15T12:20:28.505Z,99658.69
2019-06-15T12:25:29.998Z,99663.98
2019-06-15T12:30:46.119Z,99660.65
2019-06-15T12:35:38.937Z,99659.28
2019-06-15T12:40:40.437Z,99664.63
2019-06-15T12:45:41.911Z,99662.73
2019-06-15T12:50:43.389Z,99685.41
2019-06-15T12:55:44.899Z,99689.19
2019-06-15T13:00:58.912Z,99678.21
2019-06-15T13:05:49.776Z,99706.96
2019-06-15T13:10:51.258Z,99708.12
2019-06-15T13:15:52.745Z,99705.86
2019-06-15T13:20:54.205Z,99710.76
2019-06-15T13:25:55.671Z,99714.00
2019-06-15T13:30:57.148Z,99711.54
2019-06-15T13:35:58.736Z,99715.01
2019-06-15T13:41:00.377Z,99717.25
2019-06-15T13:46:01.963Z,99733.51
2019-06-15T13:51:03.592Z,99743.59
2019-06-15T13:56:05.080Z,99752.92
2019-06-15T14:01:06.565Z,99748.39
2019-06-15T14:06:08.040Z,99745.84
2019-06-15T14:11:09.518Z,99755.32
2019-06-15T14:16:11.039Z,99755.32
2019-06-15T14:21:12.497Z,99747.03
2019-06-15T14:26:13.964Z,99762.72
2019-06-15T14:31:15.469Z,99759.73
2019-06-15T14:36:16.953Z,99763.27
2019-06-15T14:41:18.443Z,99776.12
2019-06-15T14:46:19.916Z,99768.17
2019-06-15T14:51:21.419Z,99754.08
2019-06-15T14:56:22.911Z,99757.00
2019-06-15T15:01:26.161Z,99771.42
2019-06-15T15:06:27.821Z,99762.52
2019-06-15T15:11:29.328Z,99762.13
2019-06-15T15:16:30.851Z,99771.30
2019-06-15T15:21:32.422Z,99766.05
2019-06-15T15:26:33.900Z,99759.17
2019-06-15T15:31:36.227Z,99753.34
2019-06-15T15:36:37.865Z,99749.33
2019-06-15T15:41:39.341Z,99748.14
2019-06-15T15:46:40.832Z,99739.34
2019-06-15T15:51:42.299Z,99738.73
2019-06-15T15:56:43.759Z,99740.86
2019-06-15T16:01:46.198Z,99733.95
2019-06-15T16:06:47.934Z,99729.88
2019-06-15T16:11:49.459Z,99731.40
2019-06-15T16:16:50.941Z,99733.64
2019-06-15T16:21:52.408Z,99762.20
2019-06-15T16:26:56.282Z,99756.53
2019-06-15T16:31:57.254Z,99759.66
2019-06-15T16:36:58.715Z,99751.05
2019-06-15T16:42:00.284Z,99762.78
2019-06-15T16:47:01.774Z,99762.09
2019-06-15T16:52:06.024Z,99761.11
2019-06-15T16:57:06.829Z,99775.61
2019-06-15T17:02:08.994Z,99772.39
2019-06-15T17:07:10.705Z,99790.22
2019-06-15T17:12:12.211Z,99788.42
2019-06-15T17:17:13.797Z,99796.06
2019-06-15T17:22:21.082Z,99802.39
2019-06-15T17:27:18.688Z,99802.54
2019-06-15T17:32:20.174Z,99815.31
2019-06-15T17:37:21.686Z,99815.30
2019-06-15T17:42:25.877Z,99824.06
2019-06-15T17:47:26.603Z,99819.55
2019-06-15T17:52:28.103Z,99811.92
2019-06-15T17:57:29.593Z,99816.00
2019-06-15T18:02:31.082Z,99820.58
2019-06-15T18:07:32.695Z,99813.26
2019-06-15T18:12:34.194Z,99824.50
2019-06-15T18:17:36.977Z,99822.59
2019-06-15T18:22:38.680Z,99818.87
2019-06-15T18:27:40.226Z,99827.66
2019-06-15T18:32:41.704Z,99835.86
2019-06-15T18:37:43.214Z,99847.87
2019-06-15T18:42:46.352Z,99847.17
2019-06-15T18:47:47.938Z,99853.24
2019-06-15T18:52:49.408Z,99851.97
2019-06-15T18:57:50.918Z,99864.59
2019-06-15T19:02:52.390Z,99869.02
2019-06-15T19:07:53.885Z,99877.55
2019-06-15T19:12:56.689Z,99891.19
2019-06-15T19:17:58.546Z,99906.46
2019-06-15T19:23:00.124Z,99915.76
2019-06-15T19:28:01.736Z,99926.13
2019-06-15T19:33:03.428Z,99936.16
2019-06-15T19:38:06.301Z,99956.73
2019-06-15T19:43:08.753Z,99960.05
2019-06-15T19:48:10.208Z,99963.89
2019-06-15T19:53:11.704Z,99980.73
2019-06-15T19:58:16.187Z,99987.66
2019-06-15T20:03:17.054Z,99991.61
2019-06-15T20:08:18.561Z,100002.33
2019-06-15T20:13:20.011Z,100009.50
2019-06-15T20:18:21.491Z,100016.03
2019-06-15T20:23:23.493Z,100026.75
2019-06-15T20:28:27.092Z,100035.33
2019-06-15T20:33:28.342Z,100048.70
2019-06-15T20:38:29.839Z,100048.31
2019-06-15T20:43:31.886Z,100063.55
2019-06-15T20:48:36.342Z,100066.91
2019-06-15T20:53:45.989Z,100060.56
2019-06-15T20:58:47.497Z,100063.25
2019-06-15T21:03:49.165Z,100071.17
2019-06-15T21:08:50.699Z,100082.08
2019-06-15T21:13:55.800Z,100094.30
2019-06-15T21:18:57.213Z,100102.15
2019-06-15T21:23:58.777Z,100106.97
2019-06-15T21:29:00.265Z,100113.80
2019-06-15T21:34:01.756Z,100112.16
2019-06-15T21:39:06.864Z,100117.96
2019-06-15T21:44:08.459Z,100122.31
2019-06-15T21:49:09.939Z,100147.75
2019-06-15T21:54:11.430Z,100147.12
2019-06-15T21:59:12.990Z,100145.05
2019-06-15T22:04:16.641Z,100145.83
2019-06-15T22:09:20.919Z,100145.83
2019-06-15T22:14:21.365Z,100155.84
2019-06-15T22:19:22.880Z,100169.61
2019-06-15T22:24:26.631Z,100171.17
2019-06-15T22:29:27.763Z,100175.55
2019-06-15T22:34:29.304Z,100177.09
2019-06-15T22:39:30.809Z,100186.66
2019-06-15T22:44:32.292Z,100186.53
2019-06-15T22:49:35.875Z,100179.52
2019-06-15T22:54:37.802Z,100202.41
2019-06-15T22:59:39.346Z,100208.02
2019-06-15T23:04:40.794Z,100211.65
2019-06-15T23:09:42.270Z,100210.73
2019-06-15T23:14:46.449Z,100240.29
2019-06-15T23:19:47.227Z,100240.29
2019-06-15T23:24:48.707Z,100256.53
2019-06-15T23:29:50.171Z,100256.53
2019-06-15T23:34:51.647Z,100256.23
2019-06-15T23:40:12.032Z,100247.46
2019-06-15T23:45:15.989Z,100257.08
2019-06-15T23:50:17.704Z,100247.45
2019-06-15T23:55:19.399Z,100247.45
